Time;durP1;ratioP1;P1;durP2;ratioP2;P2;SDS_P1;SDS_P2;PMS_P1;PMS_P2;Temp;Humidity;BMP_temperature;BMP_pressure;BME280_temperature;BME280_humidity;BME280_pressure;Samples;Min_cycle;Max_cycle;Signal;HPM_P1;HPM_P2
2024/01/24 00:02:30;;;;;;;9.07;3.00;;;3.60;99.90;;;;;;2602163;54;21176;31
2024/01/24 00:05:25;;;;;;;15.17;2.67;;;3.60;99.90;;;;;;2601730;54;20972;31
2024/01/24 00:08:12;;;;;;;7.50;2.60;;;3.60;99.90;;;;;;2621490;46;20249;31
2024/01/24 00:10:54;;;;;;;11.80;2.57;;;3.60;99.90;;;;;;2621324;46;20023;31
2024/01/24 00:13:40;;;;;;;9.25;3.20;;;3.60;99.90;;;;;;2621232;46;20902;31
2024/01/24 00:16:26;;;;;;;9.38;2.53;;;3.60;99.90;;;;;;2602893;54;20183;31
2024/01/24 00:21:56;;;;;;;11.90;3.00;;;3.60;99.90;;;;;;2602907;54;20901;31
2024/01/24 00:24:49;;;;;;;6.70;2.47;;;3.70;99.90;;;;;;2621251;46;20874;31
2024/01/24 00:30:09;;;;;;;6.80;2.08;;;3.70;99.90;;;;;;2620534;46;20023;31
2024/01/24 00:35:43;;;;;;;6.75;2.25;;;3.80;99.90;;;;;;2620790;46;20061;31
2024/01/24 00:38:28;;;;;;;9.40;2.95;;;3.80;99.90;;;;;;2602988;54;20848;31
2024/01/24 00:41:15;;;;;;;10.20;2.78;;;3.90;99.90;;;;;;2602575;54;20027;31
2024/01/24 00:47:15;;;;;;;8.07;1.83;;;3.90;99.90;;;;;;2607194;46;20026;31
2024/01/24 00:55:57;;;;;;;11.90;2.47;;;3.90;99.90;;;;;;2602937;54;20031;31
2024/01/24 00:58:38;;;;;;;9.10;2.50;;;3.90;99.90;;;;;;2609977;46;20761;31
2024/01/24 01:01:39;;;;;;;7.55;1.60;;;3.90;99.90;;;;;;2602625;54;20085;31
2024/01/24 01:04:21;;;;;;;7.75;1.75;;;3.90;99.90;;;;;;2602889;54;20031;31
2024/01/24 01:06:59;;;;;;;11.40;3.15;;;3.90;99.90;;;;;;2621335;46;20053;31
2024/01/24 01:12:44;;;;;;;8.95;2.45;;;3.90;99.90;;;;;;2602600;54;19935;31
2024/01/24 01:15:38;;;;;;;7.20;2.90;;;3.90;99.90;;;;;;2602702;54;20072;31
2024/01/24 01:18:18;;;;;;;7.00;2.20;;;3.90;99.90;;;;;;2621106;46;20030;31
2024/01/24 01:21:16;;;;;;;8.82;2.20;;;3.90;99.90;;;;;;2602645;54;20022;31
2024/01/24 01:24:08;;;;;;;9.82;2.33;;;3.90;99.90;;;;;;2602503;54;20890;31
2024/01/24 01:27:17;;;;;;;7.85;1.95;;;3.90;99.90;;;;;;2602629;54;20995;31
2024/01/24 01:30:11;;;;;;;12.65;2.28;;;4.00;99.90;;;;;;2620833;47;20026;31
2024/01/24 01:33:07;;;;;;;10.70;2.38;;;4.00;99.90;;;;;;2602987;54;20053;31
2024/01/24 01:35:47;;;;;;;7.35;2.10;;;4.00;99.90;;;;;;2602502;54;20160;31
2024/01/24 01:39:04;;;;;;;9.55;2.13;;;4.00;99.90;;;;;;2602461;54;20035;31
2024/01/24 01:41:50;;;;;;;9.33;1.90;;;4.00;99.90;;;;;;2601858;54;20862;31
2024/01/24 01:44:38;;;;;;;8.95;2.10;;;4.00;99.90;;;;;;2602612;54;21098;31
2024/01/24 01:50:38;;;;;;;8.02;2.78;;;4.10;99.90;;;;;;2602504;54;20041;31
2024/01/24 01:56:16;;;;;;;6.57;1.95;;;4.20;99.90;;;;;;2602465;54;20069;31
2024/01/24 01:59:12;;;;;;;10.80;2.00;;;4.20;99.90;;;;;;2602712;54;21308;31
2024/01/24 02:10:59;;;;;;;12.45;2.47;;;4.40;99.90;;;;;;2620932;46;20117;31
2024/01/24 02:16:29;;;;;;;5.53;1.87;;;4.40;99.90;;;;;;2602429;54;21472;31
2024/01/24 02:19:16;;;;;;;8.93;2.22;;;4.40;99.90;;;;;;2602191;54;20050;31
2024/01/24 02:22:01;;;;;;;6.90;2.10;;;4.50;99.90;;;;;;2602534;54;20105;31
2024/01/24 02:30:12;;;;;;;8.40;2.15;;;4.50;99.90;;;;;;2603093;54;20145;31
2024/01/24 02:35:53;;;;;;;10.30;1.95;;;4.60;99.90;;;;;;2603243;54;20026;31
2024/01/24 02:38:36;;;;;;;9.68;2.00;;;4.60;99.90;;;;;;2602963;54;20575;31
2024/01/24 02:44:01;;;;;;;10.23;2.22;;;4.60;99.90;;;;;;2603290;54;21399;31
2024/01/24 02:46:59;;;;;;;11.02;2.53;;;4.60;99.90;;;;;;2603221;54;20787;31
2024/01/24 02:52:17;;;;;;;6.80;1.80;;;4.60;99.90;;;;;;2720159;39;22373;31
2024/01/24 02:55:18;;;;;;;12.05;2.03;;;4.60;99.90;;;;;;2603331;54;20859;31
2024/01/24 03:00:38;;;;;;;13.23;2.03;;;4.60;99.90;;;;;;2773060;31;20528;31
2024/01/24 03:03:26;;;;;;;3.85;1.23;;;4.60;99.90;;;;;;2621458;46;20074;31
2024/01/24 03:06:05;;;;;;;6.00;1.77;;;4.60;99.90;;;;;;2607123;46;20110;31
2024/01/24 03:09:00;;;;;;;9.13;2.15;;;4.60;99.90;;;;;;2603133;54;21070;31
2024/01/24 03:11:43;;;;;;;7.50;1.60;;;4.60;99.90;;;;;;2620931;46;20023;31
2024/01/24 03:14:22;;;;;;;8.65;1.40;;;4.70;99.90;;;;;;2603157;54;20948;31
2024/01/24 03:16:58;;;;;;;13.48;2.35;;;4.70;99.90;;;;;;2603029;54;20137;31
2024/01/24 03:19:40;;;;;;;;;;;4.70;99.90;;;;;;2621366;46;20862;31
2024/01/24 03:22:26;;;;;;;12.35;1.67;;;4.80;99.90;;;;;;2602955;54;20758;31
2024/01/24 03:25:02;;;;;;;7.85;1.75;;;4.80;99.90;;;;;;2602858;54;20026;31
2024/01/24 03:27:50;;;;;;;8.77;1.70;;;4.80;99.90;;;;;;2621321;46;20042;31
2024/01/24 03:30:33;;;;;;;12.90;1.43;;;4.80;99.90;;;;;;2603049;54;20873;31
2024/01/24 03:35:46;;;;;;;5.90;1.10;;;4.90;99.90;;;;;;2621143;46;20027;31
2024/01/24 03:38:30;;;;;;;7.90;1.40;;;4.90;99.90;;;;;;2602964;54;20873;31
2024/01/24 03:41:23;;;;;;;8.07;1.77;;;5.00;99.90;;;;;;2621434;46;20064;31
2024/01/24 03:44:11;;;;;;;5.00;0.88;;;5.00;99.90;;;;;;2602976;54;20815;31
2024/01/24 03:47:04;;;;;;;4.63;0.80;;;5.10;99.90;;;;;;2609050;46;20799;31
2024/01/24 03:52:31;;;;;;;4.70;1.30;;;5.20;99.90;;;;;;2602915;54;20258;31
2024/01/24 03:55:14;;;;;;;4.50;1.10;;;5.30;99.90;;;;;;2614575;46;21098;31
2024/01/24 03:58:05;;;;;;;3.42;0.80;;;5.30;99.90;;;;;;2603036;54;20896;31
2024/01/24 04:00:46;;;;;;;2.10;0.93;;;5.30;99.90;;;;;;2602792;54;20045;31
2024/01/24 04:06:32;;;;;;;4.57;0.90;;;5.30;99.90;;;;;;2602934;54;21292;31
2024/01/24 04:09:17;;;;;;;5.93;0.98;;;5.40;99.90;;;;;;2602788;54;20068;31
2024/01/24 04:12:07;;;;;;;2.05;0.95;;;5.40;99.90;;;;;;2602625;54;20874;31
2024/01/24 04:17:58;;;;;;;6.15;1.10;;;5.50;99.90;;;;;;2602978;54;20048;31
2024/01/24 04:23:39;;;;;;;2.22;0.63;;;5.50;99.90;;;;;;2602736;54;20038;31
2024/01/24 04:29:49;;;;;;;5.55;0.80;;;5.60;99.90;;;;;;2602982;54;20723;31
2024/01/24 04:35:30;;;;;;;3.63;0.57;;;5.60;99.90;;;;;;2602540;54;20116;31
2024/01/24 04:38:29;;;;;;;2.03;0.70;;;5.60;99.90;;;;;;2601972;54;20027;31
2024/01/24 04:41:13;;;;;;;4.32;0.98;;;5.60;99.90;;;;;;2602622;54;20030;31
2024/01/24 04:43:51;;;;;;;2.70;0.63;;;5.60;99.90;;;;;;2602118;54;21506;31
2024/01/24 04:46:29;;;;;;;2.28;0.73;;;5.60;99.90;;;;;;2601672;54;20053;31
2024/01/24 04:49:11;;;;;;;2.67;0.67;;;5.60;99.90;;;;;;2602879;54;20077;31
2024/01/24 04:52:14;;;;;;;3.00;0.85;;;5.60;99.90;;;;;;2602732;54;20022;31
2024/01/24 04:55:05;;;;;;;3.90;1.00;;;5.60;99.90;;;;;;2621132;46;20057;31
2024/01/24 04:57:43;;;;;;;3.85;0.75;;;5.60;99.90;;;;;;2621191;46;20026;31
2024/01/24 05:03:19;;;;;;;1.88;0.70;;;5.60;99.90;;;;;;2602650;54;20869;31
2024/01/24 05:06:04;;;;;;;2.90;1.10;;;5.50;99.90;;;;;;2607801;46;20100;31
2024/01/24 05:08:45;;;;;;;2.83;0.90;;;5.50;99.90;;;;;;2602891;54;20036;31
2024/01/24 05:11:24;;;;;;;3.90;0.70;;;5.50;99.90;;;;;;2621165;46;20053;31
2024/01/24 05:17:02;;;;;;;1.90;0.50;;;5.50;99.90;;;;;;2601877;54;20092;31
2024/01/24 05:19:40;;;;;;;3.30;0.90;;;5.40;99.90;;;;;;2603989;46;20313;31
2024/01/24 05:22:18;;;;;;;1.50;0.40;;;5.40;99.90;;;;;;2602052;54;20048;31
2024/01/24 05:24:54;;;;;;;4.45;0.60;;;5.40;99.90;;;;;;2602476;54;20642;31
2024/01/24 05:28:01;;;;;;;3.30;0.70;;;5.40;99.90;;;;;;2620888;46;20887;31
2024/01/24 05:33:29;;;;;;;5.50;0.90;;;5.30;99.90;;;;;;2602755;54;20881;31
2024/01/24 05:36:11;;;;;;;1.67;0.57;;;5.30;99.90;;;;;;2602546;54;20027;31
2024/01/24 05:39:01;;;;;;;2.75;1.30;;;5.30;99.90;;;;;;2602455;54;20088;31
2024/01/24 05:41:53;;;;;;;2.75;0.70;;;5.30;99.90;;;;;;2602649;54;20866;31
2024/01/24 05:44:37;;;;;;;4.40;0.80;;;5.30;99.90;;;;;;2602672;54;21035;31
2024/01/24 05:47:19;;;;;;;3.40;0.60;;;5.30;99.90;;;;;;2602572;54;20056;31
2024/01/24 05:50:16;;;;;;;2.15;0.73;;;5.30;99.90;;;;;;2602437;54;20089;31
2024/01/24 05:52:55;;;;;;;2.33;0.70;;;5.30;99.90;;;;;;2602469;54;20027;31
2024/01/24 05:55:52;;;;;;;;;;;5.30;99.90;;;;;;2602459;54;20313;31
2024/01/24 05:58:41;;;;;;;3.37;0.73;;;5.30;99.90;;;;;;2602760;54;19990;31
2024/01/24 06:01:27;;;;;;;2.97;0.60;;;5.30;99.90;;;;;;2603452;54;20268;31
2024/01/24 06:04:04;;;;;;;2.28;0.50;;;5.30;99.90;;;;;;2603340;54;20243;31
2024/01/24 06:06:41;;;;;;;2.83;0.68;;;5.30;99.90;;;;;;2603367;54;20106;31
2024/01/24 06:09:18;;;;;;;2.03;0.60;;;5.30;99.90;;;;;;2621883;46;20026;31
2024/01/24 06:12:06;;;;;;;1.58;0.60;;;5.30;99.90;;;;;;2603335;54;22478;31
2024/01/24 06:14:55;;;;;;;4.57;1.00;;;5.40;99.90;;;;;;2602420;54;20086;31
2024/01/24 06:17:43;;;;;;;1.47;0.50;;;5.30;99.90;;;;;;2602272;54;20053;31
2024/01/24 06:20:19;;;;;;;2.60;0.95;;;5.40;99.90;;;;;;2602378;54;21372;31
2024/01/24 06:22:56;;;;;;;4.97;0.60;;;5.40;99.90;;;;;;2622170;46;20023;31
2024/01/24 06:25:33;;;;;;;2.15;0.85;;;5.40;99.90;;;;;;2603203;54;20923;31
2024/01/24 06:28:20;;;;;;;5.70;0.75;;;5.50;99.90;;;;;;2603188;54;20861;31
2024/01/24 06:30:59;;;;;;;2.17;0.80;;;5.50;99.90;;;;;;2608513;46;20033;31
2024/01/24 06:33:57;;;;;;;4.13;0.90;;;5.50;99.90;;;;;;2603101;54;20952;31
2024/01/24 06:36:37;;;;;;;2.15;0.60;;;5.50;99.90;;;;;;2603522;54;20026;31
2024/01/24 06:39:23;;;;;;;2.72;0.63;;;5.60;99.90;;;;;;2603328;54;20888;31
2024/01/24 06:45:09;;;;;;;3.05;0.63;;;5.60;99.90;;;;;;2603081;54;20026;31
2024/01/24 06:47:46;;;;;;;2.30;0.90;;;5.60;99.90;;;;;;2603232;54;20876;31
2024/01/24 06:50:39;;;;;;;2.25;0.70;;;5.70;99.90;;;;;;2603266;54;20033;31
2024/01/24 06:53:42;;;;;;;3.33;0.75;;;5.70;99.90;;;;;;2603049;54;20089;31
2024/01/24 06:57:08;;;;;;;1.27;0.60;;;5.60;99.90;;;;;;2621788;46;20038;31
2024/01/24 06:59:47;;;;;;;2.63;0.70;;;5.70;99.90;;;;;;2621536;46;20922;31
2024/01/24 07:02:29;;;;;;;2.65;1.30;;;5.80;99.90;;;;;;2603254;54;20797;31
2024/01/24 07:05:18;;;;;;;2.85;0.60;;;5.80;99.90;;;;;;2603109;54;20036;31
2024/01/24 07:08:22;;;;;;;2.63;0.55;;;5.80;99.90;;;;;;2603318;54;20873;31
2024/01/24 07:11:12;;;;;;;1.00;0.50;;;5.80;99.90;;;;;;2603123;54;20030;31
2024/01/24 07:14:01;;;;;;;;;;;5.90;99.90;;;;;;2701897;39;22676;31
2024/01/24 07:16:58;;;;;;;1.53;0.73;;;5.90;99.90;;;;;;2603038;54;19935;31
2024/01/24 07:19:38;;;;;;;4.13;1.20;;;5.90;99.90;;;;;;2603019;54;20153;31
2024/01/24 07:24:58;;;;;;;3.42;0.82;;;6.00;99.90;;;;;;2602989;54;20766;31
2024/01/24 07:30:31;;;;;;;1.75;0.47;;;6.00;99.90;;;;;;2602983;54;20031;31
2024/01/24 07:33:07;;;;;;;2.55;0.50;;;6.10;99.90;;;;;;2621078;46;20152;31
2024/01/24 07:35:43;;;;;;;2.30;0.50;;;6.10;99.90;;;;;;2701268;39;21482;31
2024/01/24 07:38:27;;;;;;;4.05;0.50;;;6.20;99.90;;;;;;2602782;54;20901;31
2024/01/24 07:41:09;;;;;;;1.38;0.47;;;6.20;99.90;;;;;;2602883;54;20214;31
2024/01/24 07:44:07;;;;;;;1.95;0.65;;;6.20;99.90;;;;;;2603045;54;20026;31
2024/01/24 07:46:48;;;;;;;3.05;0.60;;;6.30;99.90;;;;;;2620879;46;20026;31
2024/01/24 07:49:27;;;;;;;2.15;0.95;;;6.40;99.90;;;;;;2603119;54;20800;31
2024/01/24 07:52:07;;;;;;;2.23;0.80;;;6.40;99.90;;;;;;2603201;54;20031;31
2024/01/24 08:00:52;;;;;;;2.10;0.87;;;6.60;99.90;;;;;;2602590;54;20038;31
2024/01/24 08:20:21;;;;;;;1.73;0.80;;;6.90;99.90;;;;;;2602506;54;20026;31
2024/01/24 08:23:09;;;;;;;2.47;0.83;;;7.00;99.90;;;;;;2602785;54;20543;31
2024/01/24 08:25:52;;;;;;;2.97;1.35;;;7.00;99.90;;;;;;2701331;39;21570;31
2024/01/24 08:28:47;;;;;;;2.13;0.93;;;7.00;99.90;;;;;;2602866;54;20046;31
2024/01/24 08:34:34;;;;;;;1.90;1.42;;;7.10;99.90;;;;;;2602882;54;21184;31
2024/01/24 08:37:14;;;;;;;1.73;1.00;;;7.20;99.90;;;;;;2602853;46;20034;31
2024/01/24 08:40:02;;;;;;;2.67;1.00;;;7.20;99.90;;;;;;2602425;54;20890;31
2024/01/24 08:43:11;;;;;;;4.07;0.80;;;7.30;99.90;;;;;;2602802;54;20955;31
2024/01/24 08:52:07;;;;;;;1.63;0.73;;;7.40;99.90;;;;;;2602715;54;20034;31
2024/01/24 08:55:11;;;;;;;3.40;1.55;;;7.50;99.90;;;;;;2620704;46;20030;31
2024/01/24 08:58:05;;;;;;;5.53;1.80;;;7.50;99.90;;;;;;2602694;54;20859;31
2024/01/24 09:04:17;;;;;;;3.63;0.82;;;7.70;99.90;;;;;;2601853;54;20052;31
2024/01/24 09:07:15;;;;;;;2.15;0.90;;;7.70;99.90;;;;;;2602792;54;20031;31
2024/01/24 09:10:02;;;;;;;2.67;0.70;;;7.80;99.90;;;;;;2602479;54;20113;31
2024/01/24 09:13:04;;;;;;;3.17;0.88;;;7.90;99.90;;;;;;2602615;54;20907;31
2024/01/24 09:15:54;;;;;;;1.80;0.80;;;7.90;99.90;;;;;;2602552;54;20787;31
2024/01/24 09:18:30;;;;;;;3.25;1.02;;;8.00;99.90;;;;;;2602541;54;20053;31
2024/01/24 09:21:12;;;;;;;2.47;0.60;;;8.00;99.90;;;;;;2621295;46;20032;31
2024/01/24 09:23:58;;;;;;;3.15;0.73;;;8.10;99.90;;;;;;2621445;46;20860;31
2024/01/24 09:26:38;;;;;;;4.32;0.90;;;8.10;99.90;;;;;;2601719;54;20885;31
2024/01/24 09:29:15;;;;;;;2.00;0.63;;;8.10;99.90;;;;;;2602588;54;21892;31
2024/01/24 09:32:00;;;;;;;3.55;1.00;;;8.20;99.90;;;;;;2602608;54;20250;31
2024/01/24 09:34:37;;;;;;;2.33;0.63;;;8.20;99.90;;;;;;2621822;46;20049;31
2024/01/24 09:37:16;;;;;;;1.63;0.93;;;8.20;99.90;;;;;;2603167;54;20030;31
2024/01/24 09:42:48;;;;;;;3.33;0.75;;;8.30;99.90;;;;;;2603140;54;20810;31
2024/01/24 09:45:31;;;;;;;1.60;0.55;;;8.30;99.90;;;;;;2603233;54;20031;31
2024/01/24 09:48:19;;;;;;;1.80;1.00;;;8.30;99.90;;;;;;2603110;54;20727;31
2024/01/24 09:51:10;;;;;;;2.80;0.70;;;8.40;99.90;;;;;;2603033;54;20953;31
2024/01/24 09:53:51;;;;;;;2.08;0.70;;;8.40;99.90;;;;;;2603420;54;20852;31
2024/01/24 09:56:48;;;;;;;2.35;0.80;;;8.40;99.90;;;;;;2621304;46;20033;31
2024/01/24 09:59:32;;;;;;;2.53;0.70;;;8.40;99.90;;;;;;2603117;54;20883;31
2024/01/24 10:02:18;;;;;;;2.70;0.80;;;8.50;99.90;;;;;;2700778;39;21329;31
2024/01/24 10:05:22;;;;;;;1.75;0.65;;;8.50;99.90;;;;;;2603245;54;20038;31
2024/01/24 10:08:03;;;;;;;2.75;0.80;;;8.50;99.90;;;;;;2603005;54;20237;31
2024/01/24 10:10:45;;;;;;;1.65;0.73;;;8.60;99.90;;;;;;2603179;54;20038;31
2024/01/24 10:19:13;;;;;;;2.45;1.75;;;8.70;99.90;;;;;;2603072;54;20771;31
2024/01/24 10:22:10;;;;;;;1.42;0.52;;;8.70;99.90;;;;;;2621625;46;20030;31
2024/01/24 10:25:17;;;;;;;1.33;0.45;;;8.80;99.90;;;;;;2621805;46;20909;31
2024/01/24 10:30:33;;;;;;;1.00;0.40;;;8.90;99.90;;;;;;2602401;54;20038;31
2024/01/24 10:33:24;;;;;;;2.40;0.60;;;9.00;99.90;;;;;;2603253;54;20245;31
2024/01/24 10:36:23;;;;;;;2.65;0.40;;;9.10;99.90;;;;;;2621402;46;21108;31
2024/01/24 10:39:30;;;;;;;2.30;0.50;;;9.10;99.90;;;;;;2603357;54;20869;31
2024/01/24 10:42:30;;;;;;;3.83;0.70;;;9.20;99.90;;;;;;2603245;54;20904;31
2024/01/24 10:45:13;;;;;;;1.80;0.50;;;9.20;99.90;;;;;;2602903;54;20887;31
2024/01/24 10:51:07;;;;;;;2.05;0.85;;;9.30;99.90;;;;;;2602816;54;20251;31
2024/01/24 10:53:53;;;;;;;3.38;1.25;;;9.40;99.90;;;;;;2720165;39;21366;31
2024/01/24 10:56:32;;;;;;;3.75;0.98;;;9.40;99.90;;;;;;2602704;54;20922;31
2024/01/24 10:59:29;;;;;;;3.70;1.33;;;9.40;99.90;;;;;;2603129;54;20511;31
2024/01/24 11:02:10;;;;;;;5.75;1.50;;;9.60;99.90;;;;;;2621329;46;20292;31
2024/01/24 11:04:53;;;;;;;4.70;1.35;;;9.70;99.90;;;;;;2602076;54;20026;31
2024/01/24 11:07:34;;;;;;;4.55;1.60;;;9.70;99.90;;;;;;2602114;54;20023;31
2024/01/24 11:13:13;;;;;;;2.55;0.68;;;9.80;99.90;;;;;;2602532;54;20061;31
2024/01/24 11:15:49;;;;;;;2.00;0.40;;;10.00;99.90;;;;;;2621376;46;20038;31
2024/01/24 11:18:31;;;;;;;2.85;1.23;;;10.10;99.90;;;;;;2602604;54;20575;31
2024/01/24 11:21:11;;;;;;;1.85;0.63;;;10.10;99.90;;;;;;2602902;54;20833;31
2024/01/24 11:23:51;;;;;;;3.72;0.52;;;10.10;99.90;;;;;;2602918;54;20056;31
2024/01/24 11:27:00;;;;;;;0.85;0.32;;;10.00;99.90;;;;;;2602755;54;20065;31
2024/01/24 11:32:40;;;;;;;3.78;0.60;;;10.00;99.90;;;;;;2602380;54;20038;31
2024/01/24 11:35:55;;;;;;;1.42;0.47;;;9.90;99.90;;;;;;2602750;54;20104;31
2024/01/24 11:38:45;;;;;;;3.60;0.80;;;9.80;99.90;;;;;;2603083;54;20947;31
2024/01/24 11:41:44;;;;;;;1.55;0.50;;;9.80;99.90;;;;;;2621511;46;20026;31
2024/01/24 12:09:32;;;;;;;1.95;0.60;;;9.50;99.90;;;;;;2602510;54;20884;31
2024/01/24 13:35:35;;;;;;;4.23;0.90;;;9.80;96.90;;;;;;2602236;54;20051;31
2024/01/24 13:38:18;;;;;;;6.95;1.40;;;9.80;95.80;;;;;;2602691;54;20038;31
2024/01/24 13:43:52;;;;;;;5.15;1.60;;;9.80;94.20;;;;;;2620602;47;20030;31
2024/01/24 13:46:31;;;;;;;5.75;0.90;;;9.80;93.80;;;;;;2620510;47;20893;31
2024/01/24 13:49:14;;;;;;;5.63;0.95;;;9.80;93.10;;;;;;2700536;39;21445;31
2024/01/24 13:52:01;;;;;;;6.30;1.00;;;9.80;92.00;;;;;;2602139;54;20033;31
2024/01/24 13:57:26;;;;;;;2.90;0.57;;;9.80;89.40;;;;;;2602104;54;20900;31
2024/01/24 14:00:13;;;;;;;4.72;0.80;;;9.80;88.50;;;;;;2602157;54;20927;31
2024/01/24 14:02:54;;;;;;;5.70;0.95;;;9.90;87.90;;;;;;2602358;54;20727;31
2024/01/24 14:05:45;;;;;;;6.15;1.05;;;9.90;89.80;;;;;;2602347;54;20092;31
2024/01/24 14:11:34;;;;;;;6.85;1.10;;;9.90;81.20;;;;;;2602175;54;20872;31
2024/01/24 14:14:23;;;;;;;6.43;0.73;;;9.90;83.20;;;;;;2619914;47;20108;31
2024/01/24 14:23:47;;;;;;;5.18;0.75;;;9.90;63.70;;;;;;2602434;54;20026;31
2024/01/24 14:29:23;;;;;;;4.32;0.73;;;9.90;53.30;;;;;;2621582;46;20891;31
2024/01/24 14:32:03;;;;;;;7.35;1.27;;;9.90;54.70;;;;;;2701357;39;20415;31
2024/01/24 14:35:02;;;;;;;10.85;1.73;;;9.90;54.70;;;;;;2621480;46;20061;31
2024/01/24 14:37:41;;;;;;;4.43;0.98;;;9.80;54.40;;;;;;2621825;46;20771;31
2024/01/24 14:40:24;;;;;;;9.70;1.55;;;9.80;55.60;;;;;;2621659;46;20026;31
2024/01/24 14:43:03;;;;;;;5.35;1.25;;;9.80;53.00;;;;;;2603106;54;20961;31
2024/01/24 14:45:43;;;;;;;5.55;1.00;;;9.80;51.70;;;;;;2603249;54;20164;31
2024/01/24 14:48:19;;;;;;;5.70;1.20;;;9.90;46.10;;;;;;2602937;54;20090;31
2024/01/24 14:51:01;;;;;;;5.65;1.50;;;9.90;40.10;;;;;;2602857;54;20038;31
2024/01/24 14:53:46;;;;;;;;;;;;;;;;;;;;;
2024/01/24 14:56:44;;;;;;;;;;;;;;;;;;;;;
2024/01/24 14:59:33;;;;;;;5.38;1.00;;;9.80;57.90;;;;;;2621346;46;20106;31
2024/01/24 15:05:14;;;;;;;7.50;1.10;;;9.70;53.00;;;;;;2602830;54;20060;31
2024/01/24 15:07:51;;;;;;;6.75;1.20;;;9.60;49.00;;;;;;2603076;54;22062;31
2024/01/24 15:10:31;;;;;;;4.55;0.90;;;9.50;49.60;;;;;;2621304;46;21863;31
2024/01/24 15:13:15;;;;;;;7.70;0.82;;;9.40;52.80;;;;;;2603021;54;20058;31
2024/01/24 15:15:56;;;;;;;3.75;0.65;;;9.30;54.00;;;;;;2621464;46;20026;31
2024/01/24 15:18:53;;;;;;;7.35;1.20;;;9.30;56.80;;;;;;2620781;46;20049;31
2024/01/24 15:21:45;;;;;;;5.68;0.93;;;9.20;59.80;;;;;;2602955;54;20889;31
2024/01/24 15:24:28;;;;;;;5.93;0.70;;;9.10;63.30;;;;;;2603042;54;20975;31
2024/01/24 15:27:08;;;;;;;10.52;1.20;;;9.10;65.40;;;;;;2602777;54;20120;31
2024/01/24 15:29:55;;;;;;;6.10;1.58;;;9.00;68.70;;;;;;2602628;54;20120;31
2024/01/24 15:44:52;;;;;;;9.83;1.27;;;8.80;73.10;;;;;;2601101;54;20010;31
2024/01/24 15:47:40;;;;;;;5.90;1.30;;;8.80;72.30;;;;;;2621188;46;20883;31
2024/01/24 15:50:44;;;;;;;;;;;;;;;;;;;;;
2024/01/24 15:56:38;;;;;;;7.65;1.70;;;8.80;64.60;;;;;;2602599;54;20253;31
2024/01/24 16:02:55;;;;;;;8.25;1.48;;;8.70;60.20;;;;;;2602759;54;20895;31
2024/01/24 16:05:41;;;;;;;10.73;1.70;;;8.70;59.10;;;;;;2621204;46;20031;31
2024/01/24 16:08:34;;;;;;;9.60;1.70;;;8.70;54.90;;;;;;2602814;54;20841;31
2024/01/24 16:14:24;;;;;;;9.30;1.48;;;8.70;51.60;;;;;;2602225;54;21178;31
2024/01/24 16:22:57;;;;;;;9.32;1.98;;;8.80;48.60;;;;;;2602870;54;20030;31
2024/01/24 16:25:39;;;;;;;7.20;1.50;;;8.70;48.50;;;;;;2602916;54;20026;31
2024/01/24 16:31:22;;;;;;;9.60;1.20;;;8.80;46.60;;;;;;2602686;54;20813;31
2024/01/24 16:34:40;;;;;;;7.03;1.73;;;8.70;45.40;;;;;;2602487;54;20048;31
2024/01/24 16:37:24;;;;;;;9.85;2.10;;;8.70;42.60;;;;;;2602391;54;20899;31
2024/01/24 16:40:30;;;;;;;7.65;3.30;;;8.70;44.40;;;;;;2621188;46;20022;31
2024/01/24 16:43:32;;;;;;;11.13;2.07;;;8.70;46.50;;;;;;2602603;54;20056;31
2024/01/24 16:49:34;;;;;;;8.32;1.33;;;8.70;50.30;;;;;;2602891;54;20770;31
2024/01/24 16:52:17;;;;;;;8.80;1.90;;;8.70;49.70;;;;;;2602616;54;20085;31
2024/01/24 16:54:59;;;;;;;9.23;1.97;;;8.70;50.60;;;;;;2621221;46;20798;31
2024/01/24 16:57:36;;;;;;;7.20;1.75;;;8.60;51.00;;;;;;2602541;54;20038;31
2024/01/24 17:09:25;;;;;;;10.57;1.95;;;8.70;40.20;;;;;;2602247;54;20920;31
2024/01/24 17:12:16;;;;;;;4.45;1.52;;;8.70;41.80;;;;;;2602571;54;20023;31
2024/01/24 17:17:31;;;;;;;8.32;2.22;;;8.70;37.20;;;;;;2602506;54;20085;31
2024/01/24 17:20:14;;;;;;;9.77;2.03;;;8.80;32.10;;;;;;2602349;54;20085;31
2024/01/24 17:22:59;;;;;;;7.35;2.00;;;8.80;34.60;;;;;;2620761;46;20057;31
2024/01/24 17:25:35;;;;;;;9.00;2.13;;;8.80;36.00;;;;;;2602294;54;20616;31
2024/01/24 17:28:18;;;;;;;7.83;2.00;;;8.70;35.10;;;;;;2602740;54;20835;31
2024/01/24 17:30:55;;;;;;;8.55;1.75;;;8.70;37.00;;;;;;2700898;39;20527;31
2024/01/24 17:33:30;;;;;;;7.32;1.52;;;8.70;34.50;;;;;;2695221;39;20027;31
2024/01/24 17:36:16;;;;;;;11.00;1.52;;;8.70;37.90;;;;;;2602539;54;20549;31
2024/01/24 17:38:54;;;;;;;8.05;1.95;;;8.70;34.40;;;;;;2602604;54;20030;31
2024/01/24 17:41:32;;;;;;;7.10;1.15;;;8.70;34.10;;;;;;2621111;47;20888;31
2024/01/24 17:44:14;;;;;;;7.53;1.63;;;8.70;32.90;;;;;;2602557;54;20053;31
2024/01/24 17:46:52;;;;;;;9.40;0.85;;;8.60;33.60;;;;;;2602597;54;20884;31
2024/01/24 17:49:31;;;;;;;9.10;1.65;;;8.60;32.50;;;;;;2602438;54;20026;31
2024/01/24 17:52:06;;;;;;;7.28;1.60;;;8.60;33.40;;;;;;2602556;54;20027;31
2024/01/24 17:54:47;;;;;;;8.85;1.70;;;8.60;32.70;;;;;;2602593;54;20895;31
2024/01/24 17:57:28;;;;;;;6.40;1.33;;;8.60;31.20;;;;;;2602468;54;20030;31
2024/01/24 18:00:11;;;;;;;11.93;1.70;;;8.60;33.10;;;;;;2621381;46;20057;31
2024/01/24 18:05:30;;;;;;;10.10;1.83;;;8.60;36.10;;;;;;2603354;54;20037;31
2024/01/24 18:08:11;;;;;;;12.65;2.20;;;8.50;38.00;;;;;;2603272;54;21025;31
2024/01/24 18:10:46;;;;;;;10.90;1.75;;;8.50;37.00;;;;;;2621878;46;20863;31
2024/01/24 18:13:25;;;;;;;5.63;1.23;;;8.50;39.90;;;;;;2603341;54;20027;31
2024/01/24 18:16:09;;;;;;;9.93;1.50;;;8.40;37.90;;;;;;2603202;54;20053;31
2024/01/24 18:18:48;;;;;;;13.70;1.95;;;8.40;37.90;;;;;;2603145;54;21188;31
2024/01/24 18:21:26;;;;;;;13.05;1.85;;;8.40;39.10;;;;;;2621542;46;20026;31
2024/01/24 18:24:09;;;;;;;8.63;1.60;;;8.40;37.90;;;;;;2603394;54;20854;31
2024/01/24 18:26:47;;;;;;;9.40;1.75;;;8.40;39.70;;;;;;2603188;54;20735;31
2024/01/24 18:29:27;;;;;;;8.15;1.52;;;8.40;39.50;;;;;;2603304;54;20862;31
2024/01/24 18:32:02;;;;;;;10.97;2.37;;;8.40;41.40;;;;;;2621712;46;20770;31
2024/01/24 18:34:49;;;;;;;7.95;2.15;;;8.40;41.40;;;;;;2603319;54;20026;31
2024/01/24 18:40:09;;;;;;;5.95;1.38;;;8.50;39.70;;;;;;2603066;54;20873;31
2024/01/24 18:42:47;;;;;;;13.65;2.55;;;8.50;44.20;;;;;;2603060;54;20030;31
2024/01/24 18:45:35;;;;;;;9.30;1.43;;;8.50;46.70;;;;;;2603294;54;20052;31
2024/01/24 18:48:12;;;;;;;7.85;1.40;;;8.50;49.00;;;;;;2719940;39;22589;31
2024/01/24 18:50:53;;;;;;;6.90;1.15;;;8.50;49.70;;;;;;2603258;54;20792;31
2024/01/24 18:53:38;;;;;;;9.05;1.60;;;8.50;50.30;;;;;;2621452;46;21886;31
2024/01/24 18:56:18;;;;;;;10.93;2.03;;;8.50;53.30;;;;;;2621451;46;20026;31
2024/01/24 18:58:57;;;;;;;9.10;1.40;;;8.50;65.00;;;;;;2621358;46;21324;31
2024/01/24 19:01:36;;;;;;;8.93;1.70;;;8.50;59.20;;;;;;2603081;54;20027;31
2024/01/24 19:04:25;;;;;;;9.65;1.77;;;8.40;60.20;;;;;;2602922;54;20033;31
2024/01/24 19:07:08;;;;;;;11.48;1.83;;;8.40;62.00;;;;;;2602997;54;20908;31
2024/01/24 19:09:45;;;;;;;13.05;2.22;;;8.40;64.90;;;;;;2603091;54;20029;31
2024/01/24 19:12:34;;;;;;;6.25;1.75;;;8.30;68.40;;;;;;2602580;54;20027;31
2024/01/24 19:15:11;;;;;;;11.98;1.88;;;8.30;88.00;;;;;;2602811;54;20161;31
2024/01/24 19:17:49;;;;;;;9.93;1.67;;;8.30;71.80;;;;;;2602774;54;21464;31
2024/01/24 19:20:28;;;;;;;9.30;1.40;;;8.30;74.40;;;;;;2603112;54;20027;31
2024/01/24 19:23:09;;;;;;;7.03;1.40;;;8.30;74.80;;;;;;2602096;54;20501;31
2024/01/24 19:25:49;;;;;;;7.60;1.52;;;8.20;75.40;;;;;;2607624;46;21190;31
2024/01/24 19:28:29;;;;;;;8.88;1.90;;;8.20;76.20;;;;;;2602083;54;20030;31
2024/01/24 19:31:12;;;;;;;10.48;1.65;;;8.20;79.90;;;;;;2621083;46;20924;31
2024/01/24 19:33:50;;;;;;;9.93;2.13;;;8.10;87.00;;;;;;2621592;46;20030;31
2024/01/24 19:36:29;;;;;;;6.70;1.10;;;8.20;88.00;;;;;;2621438;46;20054;31
2024/01/24 19:39:13;;;;;;;8.52;1.83;;;8.10;84.70;;;;;;2603176;54;20030;31
2024/01/24 19:41:53;;;;;;;9.20;1.65;;;8.20;88.30;;;;;;2603014;54;21409;31
2024/01/24 19:44:29;;;;;;;7.40;1.25;;;8.10;92.90;;;;;;2602997;54;21243;31
2024/01/24 19:47:05;;;;;;;6.20;1.30;;;8.10;95.20;;;;;;2613070;46;20943;31
2024/01/24 19:49:42;;;;;;;7.40;1.23;;;8.10;96.10;;;;;;2602128;54;20038;31
2024/01/24 19:52:21;;;;;;;12.43;2.00;;;8.00;95.10;;;;;;2621432;46;20931;31
2024/01/24 19:55:06;;;;;;;12.77;3.43;;;8.00;92.70;;;;;;2602789;54;20970;31
2024/01/24 19:57:45;;;;;;;10.07;2.08;;;8.00;93.10;;;;;;2621167;46;20033;31
2024/01/24 20:00:22;;;;;;;10.13;1.63;;;8.00;91.30;;;;;;2603186;54;20031;31
2024/01/24 20:03:00;;;;;;;6.55;0.93;;;8.00;93.80;;;;;;2602772;54;20498;31
2024/01/24 20:05:39;;;;;;;11.23;1.77;;;8.00;98.90;;;;;;2602552;54;20080;31
2024/01/24 20:08:13;;;;;;;10.60;1.60;;;8.00;99.80;;;;;;2602858;54;20081;31
2024/01/24 20:10:56;;;;;;;11.20;1.73;;;7.90;98.80;;;;;;2602721;54;20068;31
2024/01/24 20:13:34;;;;;;;10.25;1.90;;;7.90;99.90;;;;;;2621395;46;20899;31
2024/01/24 20:16:10;;;;;;;6.70;0.95;;;7.80;99.90;;;;;;2615006;46;20799;31